Urb Arroyo del Mar, Puerto Rico
Current Conditions -  °F | °C
As of 10:56 AM on Monday 22 Dec 2014 (Local Time) from TJSJ Reporting Station
Scattered Clouds Scattered Clouds  
Wind Chill: 83°   Ceiling: Unl
Heat Index: 89°   Visibility: 10mi
Dew Point: 73°   Wind: 8mph
Humidity: 72%   Direction: 80°E
Pressure: 30.07"   Gusts: NA
Location:  17.9678°N, 66.0617°W
Report Text: TJSJ 221456Z 08007KT 10SM FEW024 SCT030 SCT065 28/23 A3007 RMK AO2 SLP180 T02830228 50006
Loading
Personal Weather Stations






























Interactive Weather Map New forecast layout! Learn more

10-Day Weather Forecast

Advertisements
Track Severe Weather on mobile